createdAt,value
2022-11-17T00:02:24.497Z,-3.93
2022-11-17T00:04:51.170Z,-3.93
2022-11-17T00:07:17.938Z,-3.88
2022-11-17T00:09:44.603Z,-3.88
2022-11-17T00:12:32.797Z,-3.90
2022-11-17T00:15:00.051Z,-3.87
2022-11-17T00:17:26.687Z,-3.94
2022-11-17T00:20:11.880Z,-4.05
2022-11-17T00:22:38.460Z,-4.04
2022-11-17T00:25:05.431Z,-4.04
2022-11-17T00:27:32.819Z,-4.11
2022-11-17T00:29:59.515Z,-4.14
2022-11-17T00:32:44.957Z,-4.18
2022-11-17T00:35:11.615Z,-4.38
2022-11-17T00:38:03.517Z,-4.48
2022-11-17T00:40:30.293Z,-4.54
2022-11-17T00:42:56.923Z,-4.64
2022-11-17T00:45:23.571Z,-4.64
2022-11-17T00:47:50.195Z,-4.65
2022-11-17T00:50:16.889Z,-4.72
2022-11-17T00:52:43.550Z,-4.79
2022-11-17T00:55:10.184Z,-4.78
2022-11-17T00:57:36.783Z,-4.82
2022-11-17T01:00:04.731Z,-4.92
2022-11-17T01:02:31.318Z,-4.89
2022-11-17T01:04:57.908Z,-5.00
2022-11-17T01:07:25.333Z,-4.98
2022-11-17T01:09:52.240Z,-4.94
2022-11-17T01:12:18.830Z,-4.91
2022-11-17T01:14:46.207Z,-4.95
2022-11-17T01:17:12.787Z,-5.00
2022-11-17T01:19:39.458Z,-4.99
2022-11-17T01:22:07.919Z,-5.04
2022-11-17T01:24:34.514Z,-5.03
2022-11-17T01:27:01.112Z,-5.08
2022-11-17T01:29:27.936Z,-5.17
2022-11-17T01:31:54.531Z,-5.29
2022-11-17T01:34:21.139Z,-5.38
2022-11-17T01:37:06.993Z,-5.45
2022-11-17T01:39:33.593Z,-5.57
2022-11-17T01:42:05.154Z,-5.71
2022-11-17T01:45:03.973Z,-5.55
2022-11-17T01:47:54.574Z,-5.55
2022-11-17T01:50:26.977Z,-5.45
2022-11-17T01:52:57.527Z,-5.46
2022-11-17T01:55:28.805Z,-5.41
2022-11-17T01:58:06.229Z,-5.45
2022-11-17T02:00:34.965Z,-5.56
2022-11-17T02:03:02.358Z,-5.69
2022-11-17T02:05:37.981Z,-5.79
2022-11-17T02:08:06.807Z,-5.95
2022-11-17T02:10:35.314Z,-6.05
2022-11-17T02:13:02.646Z,-6.14
2022-11-17T02:15:30.283Z,-6.12
2022-11-17T02:17:58.572Z,-6.19
2022-11-17T02:20:42.517Z,-6.27
2022-11-17T02:23:21.077Z,-6.26
2022-11-17T02:25:54.014Z,-6.32
2022-11-17T02:28:30.105Z,-6.32
2022-11-17T02:31:06.519Z,-6.31
2022-11-17T02:34:20.141Z,-6.30
2022-11-17T02:37:10.223Z,-6.26
2022-11-17T02:39:47.351Z,-6.08
2022-11-17T02:42:22.054Z,-5.73
2022-11-17T02:44:57.905Z,-5.51
2022-11-17T02:47:29.479Z,-5.37
2022-11-17T02:50:18.190Z,-5.28
2022-11-17T02:52:46.054Z,-5.70
2022-11-17T02:55:12.655Z,-5.35
2022-11-17T02:57:40.934Z,-5.32
2022-11-17T03:00:21.013Z,-5.27
2022-11-17T03:03:18.415Z,-5.17
2022-11-17T03:05:55.052Z,-5.14
2022-11-17T03:08:43.230Z,-5.15
2022-11-17T03:11:11.442Z,-5.21
2022-11-17T03:13:40.920Z,-5.13
2022-11-17T03:16:45.106Z,-5.04
2022-11-17T03:19:49.921Z,-5.03
2022-11-17T03:22:28.865Z,-4.85
2022-11-17T03:25:03.184Z,-4.75
2022-11-17T03:27:36.861Z,-4.71
2022-11-17T03:30:08.353Z,-4.65
2022-11-17T03:32:39.147Z,-4.68
2022-11-17T03:35:10.415Z,-4.64
2022-11-17T03:37:43.291Z,-4.74
2022-11-17T03:40:13.187Z,-4.85
2022-11-17T03:42:46.172Z,-4.95
2022-11-17T03:45:25.697Z,-5.04
2022-11-17T03:48:02.154Z,-5.32
2022-11-17T03:50:35.328Z,-5.27
2022-11-17T03:53:05.191Z,-5.24
2022-11-17T03:56:02.392Z,-5.19
2022-11-17T03:58:32.167Z,-5.18
2022-11-17T04:01:01.789Z,-5.25
2022-11-17T04:03:35.424Z,-5.32
2022-11-17T04:06:02.204Z,-5.42
2022-11-17T04:08:30.824Z,-5.42
2022-11-17T04:11:18.064Z,-5.54
2022-11-17T04:14:03.013Z,-5.36
2022-11-17T04:16:29.669Z,-5.29
2022-11-17T04:18:58.857Z,-5.24
2022-11-17T04:21:25.820Z,-5.46
2022-11-17T04:23:53.182Z,-5.23
2022-11-17T04:26:38.660Z,-5.28
2022-11-17T04:29:05.357Z,-5.44
2022-11-17T04:31:32.389Z,-5.62
2022-11-17T04:34:04.313Z,-5.75
2022-11-17T04:36:35.569Z,-5.96
2022-11-17T04:39:02.564Z,-6.12
2022-11-17T04:41:48.475Z,-6.23
2022-11-17T04:44:18.251Z,-6.37
2022-11-17T04:46:46.217Z,-6.43
2022-11-17T04:49:15.244Z,-6.49
2022-11-17T04:51:42.649Z,-6.55
2022-11-17T04:54:10.876Z,-6.70
2022-11-17T04:56:38.008Z,-6.78
2022-11-17T04:59:05.676Z,-6.72
2022-11-17T05:01:32.650Z,-6.67
2022-11-17T05:04:06.446Z,-6.74
2022-11-17T05:06:38.880Z,-6.75
2022-11-17T05:09:12.424Z,-6.84
2022-11-17T05:11:57.803Z,-6.85
2022-11-17T05:14:26.132Z,-6.97
2022-11-17T05:17:09.408Z,-6.97
2022-11-17T05:19:46.000Z,-6.94
2022-11-17T05:22:39.008Z,-6.88
2022-11-17T05:25:06.383Z,-7.00
2022-11-17T05:27:36.459Z,-7.11
2022-11-17T05:30:08.324Z,-6.98
2022-11-17T17:12:42.275Z,-5.17
2022-11-17T17:15:10.127Z,-4.97
2022-11-17T17:17:36.702Z,-5.00
2022-11-17T17:20:08.698Z,-4.90
2022-11-17T17:22:35.322Z,-4.82
2022-11-17T17:25:05.291Z,-4.81
2022-11-17T17:27:33.313Z,-4.71
2022-11-17T17:29:59.928Z,-4.70
2022-11-17T17:32:26.480Z,-4.68
2022-11-17T17:34:53.163Z,-4.60
2022-11-17T17:37:20.105Z,-4.58
2022-11-17T17:39:46.686Z,-4.55
2022-11-17T17:42:15.362Z,-4.51
2022-11-17T17:44:42.061Z,-4.49
2022-11-17T17:47:08.942Z,-4.45
2022-11-17T17:49:35.818Z,-4.50
2022-11-17T17:52:02.374Z,-4.49
2022-11-17T17:54:31.186Z,-4.43
2022-11-17T17:56:57.915Z,-4.43
2022-11-17T17:59:24.502Z,-4.41
2022-11-17T18:01:54.378Z,-4.62
2022-11-17T18:04:21.243Z,-4.46
2022-11-17T18:06:48.675Z,-4.42
2022-11-17T18:09:19.004Z,-4.44
2022-11-17T18:11:49.651Z,-4.48
2022-11-17T18:14:20.578Z,-4.41
2022-11-17T18:16:47.968Z,-4.46
2022-11-17T18:19:16.873Z,-4.46
2022-11-17T18:21:44.459Z,-4.43
2022-11-17T18:24:12.512Z,-4.49
2022-11-17T18:26:41.085Z,-4.49
2022-11-17T18:29:12.325Z,-4.42
2022-11-17T18:31:39.269Z,-4.45
2022-11-17T18:34:19.579Z,-4.44
2022-11-17T18:36:46.704Z,-4.62
2022-11-17T18:39:16.060Z,-4.45
2022-11-17T18:41:44.163Z,-4.49
2022-11-17T18:44:19.472Z,-4.47
2022-11-17T18:46:46.561Z,-4.49
2022-11-17T18:49:13.256Z,-4.53
2022-11-17T18:51:39.866Z,-4.55
2022-11-17T18:54:08.661Z,-4.52
2022-11-17T18:56:37.017Z,-5.00
2022-11-17T18:59:13.564Z,-4.60
2022-11-17T19:01:42.318Z,-4.57
2022-11-17T19:04:11.791Z,-4.59
2022-11-17T19:06:38.935Z,-4.66
2022-11-17T19:09:06.153Z,-4.50
2022-11-17T19:11:33.210Z,-4.62
2022-11-17T19:14:05.408Z,-4.57
2022-11-17T19:16:32.874Z,-4.60
2022-11-17T19:19:00.102Z,-4.61
2022-11-17T19:21:31.986Z,-4.54
2022-11-17T19:24:00.398Z,-4.54
2022-11-17T19:26:37.762Z,-4.61
2022-11-17T19:29:11.149Z,-4.57
2022-11-17T19:31:41.243Z,-4.58
2022-11-17T19:34:07.903Z,-4.59
2022-11-17T19:36:35.340Z,-4.55
2022-11-17T19:39:05.746Z,-4.79
2022-11-17T19:41:35.165Z,-4.61
2022-11-17T19:44:04.190Z,-4.56
2022-11-17T19:46:31.820Z,-4.57
2022-11-17T19:48:58.523Z,-4.58
2022-11-17T19:51:27.443Z,-4.61
2022-11-17T19:53:57.034Z,-4.56
2022-11-17T19:56:25.488Z,-4.60
2022-11-17T19:58:53.716Z,-4.60
2022-11-17T20:01:26.170Z,-4.55
2022-11-17T20:03:53.631Z,-4.54
2022-11-17T20:06:22.970Z,-4.58
2022-11-17T20:08:50.508Z,-4.58
2022-11-17T20:11:23.176Z,-4.60
2022-11-17T20:13:50.489Z,-4.64
2022-11-17T20:16:26.406Z,-4.62
2022-11-17T20:18:55.736Z,-4.67
2022-11-17T20:21:22.552Z,-4.69
2022-11-17T20:23:52.762Z,-4.59
2022-11-17T20:26:24.224Z,-4.57
2022-11-17T20:28:51.402Z,-4.65
2022-11-17T20:31:20.973Z,-4.56
2022-11-17T20:33:48.968Z,-4.57
2022-11-17T20:36:17.761Z,-4.67
2022-11-17T20:38:45.193Z,-4.55
2022-11-17T20:41:11.815Z,-4.56
2022-11-17T20:43:38.536Z,-4.58
2022-11-17T20:46:05.359Z,-4.59
2022-11-17T20:48:35.195Z,-4.61
2022-11-17T20:51:04.793Z,-4.59
2022-11-17T20:53:33.118Z,-4.73
2022-11-17T20:56:01.496Z,-4.63
2022-11-17T20:58:29.088Z,-4.61
2022-11-17T21:00:56.379Z,-4.71
2022-11-17T21:03:23.651Z,-4.59
2022-11-17T21:05:59.669Z,-4.61
2022-11-17T21:08:29.252Z,-4.60
2022-11-17T21:10:57.358Z,-4.76
2022-11-17T21:13:25.216Z,-4.70
2022-11-17T21:16:12.330Z,-4.59
2022-11-17T21:18:45.139Z,-4.60
2022-11-17T21:21:11.765Z,-4.60
2022-11-17T21:23:39.974Z,-4.57
2022-11-17T21:26:09.164Z,-4.58
2022-11-17T21:28:44.806Z,-4.56
2022-11-17T21:31:16.659Z,-4.58
2022-11-17T21:33:44.267Z,-4.57
2022-11-17T21:36:13.362Z,-4.53
2022-11-17T21:38:41.969Z,-4.54
2022-11-17T21:41:10.753Z,-4.73
2022-11-17T21:43:38.774Z,-4.57
2022-11-17T21:46:10.228Z,-4.61
2022-11-17T21:48:37.489Z,-4.54
2022-11-17T21:51:05.956Z,-4.66
2022-11-17T21:53:34.043Z,-4.59
2022-11-17T21:56:05.606Z,-4.65
2022-11-17T21:58:33.497Z,-4.71
2022-11-17T22:01:12.024Z,-4.63
2022-11-17T22:03:39.397Z,-4.59
2022-11-17T22:06:14.667Z,-4.61
2022-11-17T22:08:42.772Z,-4.56
2022-11-17T22:11:15.277Z,-4.64
2022-11-17T22:13:42.702Z,-4.60
2022-11-17T22:16:12.423Z,-4.56
2022-11-17T22:18:39.203Z,-4.61
2022-11-17T22:21:06.996Z,-4.57
2022-11-17T22:23:33.976Z,-4.61
2022-11-17T22:26:03.669Z,-4.56
2022-11-17T22:28:30.516Z,-4.53
2022-11-17T22:30:57.221Z,-4.61
2022-11-17T22:33:24.257Z,-4.51
2022-11-17T22:35:50.997Z,-4.51
2022-11-17T22:38:17.649Z,-4.59
2022-11-17T22:40:45.051Z,-4.40
2022-11-17T22:43:14.868Z,-4.45
2022-11-17T22:45:42.559Z,-4.40
2022-11-17T22:48:10.229Z,-4.41
2022-11-17T22:50:36.918Z,-4.41
2022-11-17T22:53:03.971Z,-4.46
2022-11-17T22:55:33.468Z,-4.49
2022-11-17T22:58:00.408Z,-4.47
2022-11-17T23:00:27.199Z,-4.46
2022-11-17T23:02:57.884Z,-4.41
2022-11-17T23:05:24.417Z,-4.42
2022-11-17T23:07:51.033Z,-4.46
2022-11-17T23:10:17.810Z,-4.48
2022-11-17T23:12:44.754Z,-4.46
2022-11-17T23:15:11.349Z,-4.43
2022-11-17T23:17:39.089Z,-4.43
2022-11-17T23:20:06.243Z,-4.42
2022-11-17T23:22:34.157Z,-4.40
2022-11-17T23:25:00.793Z,-4.48
2022-11-17T23:27:27.629Z,-4.45
2022-11-17T23:29:54.218Z,-4.43
2022-11-17T23:32:21.834Z,-4.48
2022-11-17T23:34:48.404Z,-4.42
2022-11-17T23:37:15.115Z,-4.38
2022-11-17T23:39:41.751Z,-4.41
2022-11-17T23:42:08.387Z,-4.36
2022-11-17T23:44:35.049Z,-4.40
2022-11-17T23:47:01.657Z,-4.43
2022-11-17T23:49:28.826Z,-4.37
2022-11-17T23:51:55.373Z,-4.34
2022-11-17T23:54:22.387Z,-4.38
2022-11-17T23:56:53.097Z,-4.28
2022-11-17T23:59:20.996Z,-4.28
